Newick, United Kingdom
Current Conditions -  °F | °C
As of 6:50 PM on Wednesday 26 Nov 2014 (Local Time) from EGKK Reporting Station
Haze Haze  
Wind Chill: 48°   Ceiling: 200
Heat Index: 48°   Visibility: 0.87mi
Dew Point: 48°   Wind: 3mph
Humidity: 100%   Direction: 60°ENE
Pressure: 29.8"   Gusts: NA
Location:  50.98°N, 0.02°E
Report Text: EGKK 261850Z 06003KT 1400 R08R/P1500 BR BKN002 09/09 Q1009
Loading
Personal Weather Stations






























Interactive Weather Map New forecast layout! Learn more

10-Day Weather Forecast

Advertisements
Track Severe Weather on mobile